Time;durP1;ratioP1;P1;durP2;ratioP2;P2;SDS_P1;SDS_P2;PMS_P1;PMS_P2;Temp;Humidity;BMP_temperature;BMP_pressure;BME280_temperature;BME280_humidity;BME280_pressure;Samples;Min_cycle;Max_cycle;Signal;HPM_P1;HPM_P2
2022/09/04 00:01:13;;;;;;;3.40;1.70;;;18.70;48.40;;;;;;4968123;28;20059;-74
2022/09/04 00:03:46;;;;;;;3.88;1.77;;;18.70;48.40;;;;;;4970800;28;20343;-74
2022/09/04 00:06:19;;;;;;;6.25;1.73;;;18.70;48.50;;;;;;4970834;28;20055;-75
2022/09/04 00:09:02;;;;;;;3.85;2.00;;;18.70;48.50;;;;;;4954690;28;20062;-75
2022/09/04 00:11:37;;;;;;;3.85;1.80;;;18.70;48.50;;;;;;4972684;28;20083;-74
2022/09/04 00:14:11;;;;;;;5.20;1.90;;;18.70;48.60;;;;;;4972254;28;20168;-75
2022/09/04 00:16:44;;;;;;;5.03;1.80;;;18.70;48.60;;;;;;4972619;28;20355;-74
2022/09/04 00:19:19;;;;;;;4.10;1.85;;;18.70;48.60;;;;;;4954835;28;20059;-75
2022/09/04 00:21:52;;;;;;;3.95;1.60;;;18.60;48.60;;;;;;4970841;28;20059;-75
2022/09/04 00:24:22;;;;;;;5.05;1.95;;;18.70;48.50;;;;;;4970906;28;20058;-74
2022/09/04 00:26:57;;;;;;;4.20;1.90;;;18.70;48.60;;;;;;4972083;28;20133;-75
2022/09/04 00:29:47;;;;;;;4.80;1.90;;;18.70;48.50;;;;;;4954240;28;20343;-74
2022/09/04 00:32:20;;;;;;;4.63;1.80;;;18.70;48.50;;;;;;4969250;28;20051;-75
2022/09/04 00:35:07;;;;;;;3.85;1.80;;;18.60;48.50;;;;;;4972309;28;20051;-75
2022/09/04 00:37:39;;;;;;;4.70;1.90;;;18.60;48.70;;;;;;4972021;28;20500;-75
2022/09/04 00:40:14;;;;;;;3.57;2.00;;;18.50;48.70;;;;;;4972057;28;20201;-74
2022/09/04 00:42:57;;;;;;;4.93;2.17;;;18.50;48.80;;;;;;4972463;28;20347;-75
2022/09/04 00:45:40;;;;;;;3.58;1.88;;;18.50;49.00;;;;;;4970475;28;20054;-75
2022/09/04 00:48:19;;;;;;;3.55;1.85;;;18.40;49.10;;;;;;4972032;28;20058;-74
2022/09/04 00:51:16;;;;;;;3.95;1.90;;;18.40;49.20;;;;;;4970093;28;20062;-74
2022/09/04 00:54:27;;;;;;;5.67;2.20;;;18.50;49.20;;;;;;4987015;28;20174;-75
2022/09/04 00:57:29;;;;;;;5.15;2.20;;;18.50;49.20;;;;;;4970797;28;20355;-74
2022/09/04 01:00:08;;;;;;;4.55;1.80;;;18.50;49.30;;;;;;4985821;28;20769;-75
2022/09/04 01:02:53;;;;;;;3.78;2.08;;;18.50;49.50;;;;;;4970508;28;20120;-74
2022/09/04 01:05:35;;;;;;;4.97;2.05;;;18.50;49.80;;;;;;4952763;28;20130;-75
2022/09/04 01:08:16;;;;;;;4.33;2.03;;;18.50;49.80;;;;;;4971844;28;20439;-75
2022/09/04 01:10:51;;;;;;;3.67;1.80;;;18.50;49.80;;;;;;4973084;28;20281;-74
2022/09/04 01:13:26;;;;;;;5.97;1.83;;;18.50;49.70;;;;;;4974781;28;20066;-74
2022/09/04 01:15:58;;;;;;;3.92;2.10;;;18.50;49.70;;;;;;4974024;28;20086;-74
2022/09/04 01:18:37;;;;;;;4.75;1.80;;;18.40;49.70;;;;;;4973392;28;20126;-75
2022/09/04 01:21:42;;;;;;;5.77;2.27;;;18.40;49.90;;;;;;4973174;28;20055;-74
2022/09/04 01:24:31;;;;;;;4.15;2.10;;;18.40;49.90;;;;;;4972136;28;20267;-74
2022/09/04 01:27:07;;;;;;;4.32;1.92;;;18.40;50.20;;;;;;4972129;28;20137;-74
2022/09/04 01:29:42;;;;;;;3.78;1.80;;;18.40;50.80;;;;;;4972347;28;20071;-74
2022/09/04 01:32:19;;;;;;;3.90;2.20;;;18.30;51.00;;;;;;4974769;28;20059;-75
2022/09/04 01:34:58;;;;;;;4.07;2.00;;;18.30;50.90;;;;;;4974573;28;20065;-74
2022/09/04 01:37:40;;;;;;;3.38;2.10;;;18.30;50.90;;;;;;4974979;28;20252;-74
2022/09/04 01:40:22;;;;;;;5.78;2.10;;;18.30;50.90;;;;;;4972933;28;20085;-74
2022/09/04 01:42:54;;;;;;;4.20;1.92;;;18.30;51.00;;;;;;4973241;28;20043;-74
2022/09/04 01:45:32;;;;;;;5.28;2.10;;;18.30;51.20;;;;;;4957171;28;20634;-75
2022/09/04 01:48:06;;;;;;;4.43;2.17;;;18.20;51.30;;;;;;4973507;28;20109;-75
2022/09/04 01:50:36;;;;;;;4.07;1.90;;;18.20;51.60;;;;;;4972451;28;20255;-74
2022/09/04 01:53:11;;;;;;;4.60;2.20;;;18.20;51.80;;;;;;4974843;28;20105;-74
2022/09/04 01:55:47;;;;;;;3.35;2.00;;;18.20;51.90;;;;;;4974621;28;20167;-74
2022/09/04 01:58:26;;;;;;;4.97;2.22;;;18.10;52.10;;;;;;4973413;28;20051;-74
2022/09/04 02:01:00;;;;;;;5.60;2.27;;;18.00;52.30;;;;;;4972566;28;20051;-74
2022/09/04 02:03:38;;;;;;;4.25;2.30;;;18.00;52.40;;;;;;4973106;28;20769;-74
2022/09/04 02:06:11;;;;;;;5.50;2.70;;;17.90;52.40;;;;;;4972898;28;20108;-75
2022/09/04 02:08:51;;;;;;;4.32;2.22;;;17.80;52.50;;;;;;4974580;28;20528;-74
2022/09/04 02:11:19;;;;;;;3.88;2.20;;;17.80;52.50;;;;;;4971838;28;20134;-74
2022/09/04 02:14:08;;;;;;;3.60;2.30;;;17.80;52.50;;;;;;4976040;28;20047;-75
2022/09/04 02:16:45;;;;;;;5.20;2.40;;;17.80;52.60;;;;;;4973331;28;20278;-74
2022/09/04 02:19:31;;;;;;;5.57;2.35;;;17.70;52.70;;;;;;4956166;28;20051;-74
2022/09/04 02:22:04;;;;;;;4.88;2.70;;;17.70;52.60;;;;;;4972394;28;20126;-75
2022/09/04 02:24:48;;;;;;;4.22;2.25;;;17.60;52.80;;;;;;4974095;28;20057;-74
2022/09/04 02:27:21;;;;;;;6.17;2.30;;;17.60;52.70;;;;;;4974475;28;20056;-74
2022/09/04 02:29:57;;;;;;;4.10;2.30;;;17.60;52.90;;;;;;4974076;28;20291;-74
2022/09/04 02:32:31;;;;;;;5.15;2.33;;;17.60;53.00;;;;;;4972587;28;20052;-74
2022/09/04 02:35:08;;;;;;;4.88;2.10;;;17.50;53.00;;;;;;4972721;28;20062;-74
2022/09/04 02:37:43;;;;;;;4.63;2.20;;;17.50;53.00;;;;;;4972652;28;20059;-74
2022/09/04 02:40:17;;;;;;;3.93;2.40;;;17.50;53.10;;;;;;4956575;28;20051;-74
2022/09/04 02:42:56;;;;;;;4.53;2.40;;;17.50;53.30;;;;;;4973857;28;20382;-74
2022/09/04 02:45:34;;;;;;;4.75;2.53;;;17.40;53.50;;;;;;4974325;28;20179;-74
2022/09/04 02:48:12;;;;;;;5.43;2.67;;;17.40;53.60;;;;;;4973857;28;20165;-74
2022/09/04 02:50:56;;;;;;;4.47;2.20;;;17.30;53.70;;;;;;4972946;28;20520;-74
2022/09/04 02:53:30;;;;;;;4.77;2.37;;;17.30;53.70;;;;;;4972251;28;20127;-74
2022/09/04 02:56:20;;;;;;;5.20;2.47;;;17.30;53.80;;;;;;4973880;28;20761;-74
2022/09/04 02:59:02;;;;;;;4.85;2.60;;;17.20;53.70;;;;;;4956033;28;20047;-74
2022/09/04 03:01:37;;;;;;;4.05;2.58;;;17.20;53.70;;;;;;4956156;28;20131;-74
2022/09/04 03:04:10;;;;;;;4.40;2.50;;;17.20;53.70;;;;;;4972548;28;20052;-74
2022/09/04 03:06:50;;;;;;;5.73;2.90;;;17.20;53.80;;;;;;4973651;28;20126;-74
2022/09/04 03:09:23;;;;;;;4.60;2.55;;;17.20;53.60;;;;;;4971753;28;20330;-74
2022/09/04 03:11:57;;;;;;;4.85;2.38;;;17.20;53.80;;;;;;4973361;28;20059;-74
2022/09/04 03:14:33;;;;;;;5.00;2.63;;;17.20;53.90;;;;;;4972268;28;20129;-74
2022/09/04 03:17:10;;;;;;;4.95;3.00;;;17.10;53.80;;;;;;4954676;28;20055;-74
2022/09/04 03:19:45;;;;;;;6.03;2.67;;;17.10;53.90;;;;;;4972040;28;20078;-74
2022/09/04 03:22:17;;;;;;;7.05;2.88;;;17.00;53.90;;;;;;4988092;28;20773;-74
2022/09/04 03:25:02;;;;;;;6.03;2.92;;;17.00;54.00;;;;;;4972020;28;20125;-74
2022/09/04 03:27:32;;;;;;;5.75;2.80;;;17.00;53.90;;;;;;4971629;28;20055;-74
2022/09/04 03:30:04;;;;;;;5.20;2.50;;;17.00;54.10;;;;;;4972820;28;20055;-74
2022/09/04 03:32:39;;;;;;;4.80;2.80;;;17.00;54.20;;;;;;4971508;28;20047;-75
2022/09/04 03:35:14;;;;;;;4.47;2.40;;;17.00;54.50;;;;;;4973842;28;20342;-74
2022/09/04 03:37:57;;;;;;;4.53;2.40;;;17.00;54.40;;;;;;4955449;28;20170;-74
2022/09/04 03:40:36;;;;;;;4.10;2.42;;;17.00;54.30;;;;;;4971589;28;20871;-74
2022/09/04 03:43:29;;;;;;;3.90;2.30;;;16.90;54.60;;;;;;4972739;28;20118;-74
2022/09/04 03:46:05;;;;;;;5.20;2.53;;;16.90;54.80;;;;;;4972587;28;20497;-74
2022/09/04 03:48:53;;;;;;;5.60;2.50;;;16.90;54.70;;;;;;4971540;28;20279;-74
2022/09/04 03:51:34;;;;;;;5.13;2.78;;;16.80;54.50;;;;;;4970035;28;20047;-74
2022/09/04 03:54:12;;;;;;;5.03;2.90;;;16.80;54.90;;;;;;4955221;28;20138;-74
2022/09/04 03:56:56;;;;;;;5.85;2.80;;;16.80;55.00;;;;;;4972753;28;20054;-74
2022/09/04 03:59:39;;;;;;;4.53;2.70;;;16.80;55.10;;;;;;4987477;28;20133;-74
2022/09/04 04:02:17;;;;;;;4.93;2.60;;;16.70;55.30;;;;;;4972794;28;20274;-74
2022/09/04 04:04:59;;;;;;;4.45;2.60;;;16.70;55.60;;;;;;4971528;28;20854;-74
2022/09/04 04:07:40;;;;;;;4.60;2.80;;;16.70;55.50;;;;;;4971328;28;20040;-74
2022/09/04 04:10:19;;;;;;;4.97;2.60;;;16.60;55.20;;;;;;4971139;28;20426;-74
2022/09/04 04:13:20;;;;;;;4.63;2.47;;;16.60;55.30;;;;;;4955680;28;20660;-74
2022/09/04 04:16:02;;;;;;;4.53;2.45;;;16.60;55.20;;;;;;4971147;28;20263;-74
2022/09/04 04:18:43;;;;;;;5.38;2.45;;;16.50;55.40;;;;;;4972650;28;20048;-74
2022/09/04 04:21:22;;;;;;;5.10;2.75;;;16.50;55.50;;;;;;4970684;28;20473;-74
2022/09/04 04:24:04;;;;;;;4.22;2.90;;;16.50;55.50;;;;;;4979796;28;20055;-74
2022/09/04 04:26:47;;;;;;;4.60;2.60;;;16.50;55.50;;;;;;4987065;28;20541;-74
2022/09/04 04:29:39;;;;;;;5.50;2.90;;;16.50;55.50;;;;;;4971843;28;20259;-74
2022/09/04 04:32:24;;;;;;;4.57;2.60;;;16.40;55.60;;;;;;4987105;28;20058;-74
2022/09/04 04:35:07;;;;;;;5.35;2.70;;;16.40;55.60;;;;;;4972059;28;20531;-74
2022/09/04 04:37:43;;;;;;;4.35;2.58;;;16.40;56.10;;;;;;4970475;28;20054;-74
2022/09/04 04:40:16;;;;;;;6.13;2.97;;;16.30;56.40;;;;;;4970591;28;20051;-74
2022/09/04 04:42:52;;;;;;;5.53;2.90;;;16.20;56.60;;;;;;4972036;28;20275;-74
2022/09/04 04:48:40;;;;;;;5.03;2.72;;;16.10;56.90;;;;;;4972245;28;20059;-74
2022/09/04 04:51:17;;;;;;;4.85;3.00;;;16.10;56.40;;;;;;4986097;28;20165;-74
2022/09/04 04:53:57;;;;;;;4.37;2.97;;;16.10;56.80;;;;;;4987035;28;20063;-74
2022/09/04 04:56:30;;;;;;;5.43;3.30;;;16.00;56.80;;;;;;4985645;28;20279;-74
2022/09/04 04:59:07;;;;;;;5.28;3.10;;;16.00;57.20;;;;;;4971212;28;20142;-74
2022/09/04 05:01:43;;;;;;;6.22;3.20;;;16.00;57.40;;;;;;4969508;28;20111;-73
2022/09/04 05:04:24;;;;;;;6.00;3.20;;;15.90;57.50;;;;;;4969998;28;20130;-74
2022/09/04 05:06:58;;;;;;;6.53;3.57;;;15.80;57.80;;;;;;4970570;28;20051;-74
2022/09/04 05:09:36;;;;;;;5.30;2.95;;;15.80;57.80;;;;;;4969889;28;20302;-74
2022/09/04 05:12:11;;;;;;;4.70;2.95;;;15.80;57.70;;;;;;4969524;28;20577;-74
2022/09/04 05:14:48;;;;;;;4.90;3.20;;;15.80;57.80;;;;;;4969255;28;20047;-74
2022/09/04 05:17:24;;;;;;;6.05;3.50;;;15.80;58.00;;;;;;4966133;28;20055;-74
2022/09/04 05:20:01;;;;;;;6.07;3.10;;;15.80;58.10;;;;;;4967944;28;20600;-74
2022/09/04 05:22:36;;;;;;;6.80;3.25;;;15.70;58.20;;;;;;4967783;28;21028;-74
2022/09/04 05:25:13;;;;;;;5.57;3.55;;;15.70;58.30;;;;;;4968832;28;20109;-74
2022/09/04 05:27:52;;;;;;;5.32;3.40;;;15.70;58.20;;;;;;4967032;28;20086;-74
2022/09/04 05:30:27;;;;;;;5.85;3.10;;;15.60;58.40;;;;;;4968099;28;20043;-74
2022/09/04 05:33:02;;;;;;;6.20;3.50;;;15.60;58.60;;;;;;4970645;28;20044;-74
2022/09/04 05:35:40;;;;;;;6.75;3.45;;;15.60;58.60;;;;;;4971386;28;20390;-74
2022/09/04 05:38:15;;;;;;;5.63;3.38;;;15.60;58.60;;;;;;4969625;28;20083;-75
2022/09/04 05:41:03;;;;;;;6.30;3.72;;;15.60;58.60;;;;;;4969623;28;20103;-75
2022/09/04 05:43:39;;;;;;;6.85;3.55;;;15.60;58.90;;;;;;4967839;28;20616;-75
2022/09/04 05:46:11;;;;;;;6.87;3.23;;;15.60;58.90;;;;;;4968013;28;20425;-75
2022/09/04 05:48:45;;;;;;;7.13;3.78;;;15.50;59.70;;;;;;4969257;28;20350;-75
2022/09/04 05:51:40;;;;;;;6.05;3.40;;;15.50;60.00;;;;;;4968852;28;20055;-75
2022/09/04 05:54:25;;;;;;;7.18;3.70;;;15.40;60.10;;;;;;4968813;28;20078;-75
2022/09/04 05:57:10;;;;;;;5.43;3.42;;;15.30;60.60;;;;;;4969743;28;20051;-75
2022/09/04 06:00:01;;;;;;;5.80;3.37;;;15.30;60.50;;;;;;4971718;28;20051;-75
2022/09/04 06:03:08;;;;;;;5.82;3.55;;;15.20;60.60;;;;;;4956570;28;20731;-75
2022/09/04 06:05:46;;;;;;;7.28;3.30;;;15.30;61.10;;;;;;4972323;28;20134;-75
2022/09/04 06:08:30;;;;;;;6.82;3.72;;;15.30;61.00;;;;;;4971833;28;20055;-75
2022/09/04 06:11:05;;;;;;;6.35;3.50;;;15.30;61.30;;;;;;4972535;28;20053;-75
2022/09/04 06:13:58;;;;;;;7.13;3.90;;;15.30;61.50;;;;;;4970781;28;20067;-75
2022/09/04 06:16:41;;;;;;;6.95;3.38;;;15.30;61.50;;;;;;4973967;28;20283;-75
2022/09/04 06:19:21;;;;;;;7.05;3.42;;;15.30;61.60;;;;;;4972520;28;20055;-75
2022/09/04 06:22:31;;;;;;;4.75;2.90;;;15.40;61.70;;;;;;4970903;28;20509;-75
2022/09/04 06:25:24;;;;;;;4.68;2.90;;;15.40;61.60;;;;;;4970698;28;20055;-74
2022/09/04 06:28:04;;;;;;;6.50;3.30;;;15.40;61.50;;;;;;4961770;28;20978;-74
2022/09/04 06:30:37;;;;;;;5.88;3.17;;;15.40;61.40;;;;;;4970767;28;20395;-75
2022/09/04 06:33:41;;;;;;;6.20;3.17;;;15.40;61.30;;;;;;4850070;28;20092;-75
2022/09/04 06:36:37;;;;;;;4.95;3.17;;;15.50;61.40;;;;;;4939891;28;20955;-75
2022/09/04 06:39:20;;;;;;;5.35;3.03;;;15.50;61.50;;;;;;4943021;28;20102;-75
2022/09/04 06:42:04;;;;;;;5.57;3.13;;;15.50;61.40;;;;;;4951847;28;20058;-75
2022/09/04 06:44:43;;;;;;;6.53;3.38;;;15.50;61.30;;;;;;4952856;28;20236;-75
2022/09/04 06:47:22;;;;;;;6.20;3.10;;;15.60;61.50;;;;;;4953144;28;20512;-74
2022/09/04 06:50:07;;;;;;;5.03;3.10;;;15.60;61.50;;;;;;4950089;28;20448;-74
2022/09/04 06:52:44;;;;;;;5.85;3.30;;;15.60;61.40;;;;;;4952423;28;20758;-74
2022/09/04 06:55:17;;;;;;;5.53;3.30;;;15.60;61.50;;;;;;4953541;28;20451;-74
2022/09/04 06:57:59;;;;;;;6.80;3.30;;;15.70;61.50;;;;;;4964030;28;20278;-74
2022/09/04 07:00:33;;;;;;;7.70;3.53;;;15.80;61.40;;;;;;4966411;28;20111;-74
2022/09/04 07:03:20;;;;;;;6.80;3.10;;;15.80;61.40;;;;;;4952293;28;20505;-75
2022/09/04 07:05:57;;;;;;;6.95;3.35;;;15.80;61.30;;;;;;4951118;28;20052;-75
2022/09/04 07:08:37;;;;;;;5.53;3.13;;;15.80;61.20;;;;;;4953331;28;20071;-75
2022/09/04 07:11:19;;;;;;;6.20;3.05;;;16.00;61.40;;;;;;4951703;28;20264;-75
2022/09/04 07:14:15;;;;;;;5.20;3.20;;;16.00;61.30;;;;;;4951012;28;20146;-75
2022/09/04 07:16:48;;;;;;;5.10;3.05;;;16.00;61.30;;;;;;4949958;28;20514;-75
2022/09/04 07:19:40;;;;;;;4.68;3.30;;;16.10;61.30;;;;;;4953954;28;20578;-75
2022/09/04 07:22:34;;;;;;;6.63;3.10;;;16.10;61.60;;;;;;4953478;28;20537;-75
2022/09/04 07:25:11;;;;;;;8.00;4.15;;;16.20;61.90;;;;;;4953215;28;20287;-75
2022/09/04 07:27:59;;;;;;;7.78;4.20;;;16.30;61.70;;;;;;4951408;28;20055;-73
2022/09/04 07:30:30;;;;;;;6.78;4.40;;;16.40;61.60;;;;;;4951573;28;20101;-72
2022/09/04 07:33:01;;;;;;;8.65;4.55;;;16.40;61.40;;;;;;4951785;28;20058;-73
2022/09/04 07:35:35;;;;;;;8.53;4.87;;;16.50;61.40;;;;;;4951592;28;20051;-73
2022/09/04 07:38:10;;;;;;;8.90;4.75;;;16.50;61.50;;;;;;4951379;28;20280;-73
2022/09/04 07:40:42;;;;;;;8.23;4.43;;;16.60;61.50;;;;;;4950903;28;20107;-73
2022/09/04 07:43:20;;;;;;;8.82;4.85;;;16.70;61.40;;;;;;4950831;28;20062;-73
2022/09/04 07:45:57;;;;;;;8.05;4.80;;;16.70;61.40;;;;;;4953120;28;20075;-73
2022/09/04 07:48:29;;;;;;;7.63;4.27;;;16.80;61.40;;;;;;4952026;28;20059;-73
2022/09/04 07:51:06;;;;;;;7.85;4.10;;;16.90;61.50;;;;;;4949711;28;20308;-73
2022/09/04 07:54:10;;;;;;;6.53;4.18;;;17.00;61.40;;;;;;4951725;28;20063;-73
2022/09/04 07:56:56;;;;;;;7.45;4.13;;;17.00;61.60;;;;;;4947502;28;20051;-73
2022/09/04 07:59:51;;;;;;;5.80;3.80;;;17.10;61.30;;;;;;4951650;28;20143;-73
2022/09/04 08:02:28;;;;;;;7.77;4.03;;;17.20;61.10;;;;;;4950178;28;20078;-71
2022/09/04 08:05:21;;;;;;;6.70;3.53;;;17.30;61.10;;;;;;4951761;28;20262;-71
2022/09/04 08:08:28;;;;;;;6.30;3.08;;;17.40;61.40;;;;;;4950149;28;20534;-70
2022/09/04 08:11:08;;;;;;;5.28;2.80;;;17.50;61.30;;;;;;4918162;28;20044;-70
2022/09/04 08:14:00;;;;;;;5.57;2.50;;;17.60;60.80;;;;;;4951471;28;20134;-71
2022/09/04 08:16:36;;;;;;;5.50;2.80;;;17.70;60.50;;;;;;4947694;28;20128;-70
2022/09/04 08:19:19;;;;;;;4.80;2.70;;;17.80;60.70;;;;;;4953433;28;20280;-70
2022/09/04 08:21:48;;;;;;;5.28;2.70;;;17.90;60.40;;;;;;4949886;28;20167;-70
2022/09/04 08:24:52;;;;;;;4.90;2.90;;;18.00;60.40;;;;;;4949307;28;20134;-70
2022/09/04 08:27:37;;;;;;;8.15;3.10;;;18.00;60.60;;;;;;4949079;28;20605;-70
2022/09/04 08:30:06;;;;;;;5.97;2.57;;;18.10;60.50;;;;;;4949045;28;20048;-70
2022/09/04 08:32:56;;;;;;;5.75;2.75;;;18.20;60.20;;;;;;4949718;28;20282;-71
2022/09/04 08:35:26;;;;;;;6.57;2.53;;;18.30;60.20;;;;;;4949993;28;20481;-70
2022/09/04 08:38:11;;;;;;;6.22;2.88;;;18.40;60.30;;;;;;4949680;28;20545;-71
2022/09/04 08:41:26;;;;;;;5.00;2.88;;;18.50;60.00;;;;;;4964692;28;20127;-71
2022/09/04 08:44:36;;;;;;;15.90;3.70;;;18.60;59.50;;;;;;4924308;28;20059;-71
2022/09/04 08:47:39;;;;;;;5.70;2.97;;;18.80;59.40;;;;;;4965645;28;20256;-70
2022/09/04 08:50:17;;;;;;;4.88;2.42;;;18.90;59.50;;;;;;4966642;28;20047;-71
2022/09/04 08:53:37;;;;;;;5.97;2.70;;;19.00;59.50;;;;;;4951193;28;20055;-71
2022/09/04 08:56:19;;;;;;;6.07;2.67;;;19.10;59.10;;;;;;4950919;28;20056;-71
2022/09/04 08:59:36;;;;;;;5.50;2.77;;;19.20;59.30;;;;;;4949511;28;20545;-74
2022/09/04 09:02:34;;;;;;;4.63;2.70;;;19.30;59.30;;;;;;4949284;28;20344;-75
2022/09/04 09:05:32;;;;;;;4.15;2.55;;;19.40;59.40;;;;;;4916177;28;20058;-76
2022/09/04 09:08:18;;;;;;;5.63;2.72;;;19.50;59.10;;;;;;4947470;28;20498;-78
2022/09/04 09:11:02;;;;;;;4.22;2.63;;;19.60;59.00;;;;;;4949918;28;20052;-76
2022/09/04 09:14:11;;;;;;;4.87;2.67;;;19.70;59.10;;;;;;4950931;28;20079;-75
2022/09/04 09:16:45;;;;;;;5.32;2.53;;;19.80;58.90;;;;;;4940319;28;20697;-77
2022/09/04 09:19:21;;;;;;;5.35;2.47;;;20.00;58.70;;;;;;4950564;28;20066;-76
2022/09/04 09:22:08;;;;;;;4.75;2.78;;;20.00;58.70;;;;;;4950418;28;20052;-75
2022/09/04 09:25:06;;;;;;;6.30;2.85;;;20.10;58.70;;;;;;4947898;28;20115;-76
2022/09/04 09:28:19;;;;;;;4.70;2.60;;;20.30;58.70;;;;;;4940707;28;20159;-76
2022/09/04 09:31:18;;;;;;;4.22;2.50;;;20.40;58.20;;;;;;4953100;28;20392;-76
2022/09/04 09:34:24;;;;;;;4.95;2.65;;;20.50;58.20;;;;;;4955223;28;20051;-76
2022/09/04 09:37:20;;;;;;;4.03;2.30;;;20.70;57.80;;;;;;4924188;28;20116;-75
2022/09/04 09:40:17;;;;;;;4.15;2.47;;;20.80;57.50;;;;;;4953402;28;20522;-76
2022/09/04 09:43:21;;;;;;;4.07;2.27;;;20.90;57.20;;;;;;4953271;28;20475;-80
2022/09/04 09:46:27;;;;;;;4.32;2.33;;;21.10;57.00;;;;;;4955155;28;20264;-79
2022/09/04 09:49:31;;;;;;;6.07;2.63;;;21.10;56.60;;;;;;4953772;28;20544;-81
2022/09/04 09:52:18;;;;;;;5.53;2.50;;;21.30;56.30;;;;;;4920003;28;20060;-81
2022/09/04 09:55:16;;;;;;;7.97;2.88;;;21.50;56.20;;;;;;4951475;28;20582;-77
2022/09/04 09:58:03;;;;;;;5.57;2.50;;;21.60;56.10;;;;;;4950833;28;20154;-79
2022/09/04 10:00:43;;;;;;;5.30;2.42;;;21.70;55.70;;;;;;4945486;28;20268;-79
2022/09/04 10:04:10;;;;;;;5.93;2.50;;;21.90;55.30;;;;;;4951796;28;20059;-78
2022/09/04 10:07:10;;;;;;;3.72;2.20;;;21.90;54.80;;;;;;4869614;29;20045;-79
2022/09/04 10:10:10;;;;;;;3.70;2.30;;;22.10;54.70;;;;;;4951212;28;20080;-80
2022/09/04 10:13:14;;;;;;;4.37;2.30;;;22.20;54.30;;;;;;4948581;28;20044;-82
2022/09/04 10:16:20;;;;;;;3.60;2.10;;;22.30;54.00;;;;;;4953476;28;20276;-79
2022/09/04 10:19:15;;;;;;;3.65;2.03;;;22.50;54.00;;;;;;4881783;28;20539;-77
2022/09/04 10:22:23;;;;;;;4.15;2.10;;;22.60;53.80;;;;;;4953733;28;20506;-76
2022/09/04 10:25:25;;;;;;;3.97;2.30;;;22.70;53.50;;;;;;4951802;28;20146;-75
2022/09/04 10:28:24;;;;;;;4.87;2.53;;;22.90;53.70;;;;;;4950323;28;20059;-75
2022/09/04 10:31:27;;;;;;;4.55;2.50;;;23.00;53.30;;;;;;4948093;28;20247;-75
2022/09/04 10:34:12;;;;;;;4.47;2.42;;;23.10;53.00;;;;;;4937781;28;20051;-76
2022/09/04 10:36:52;;;;;;;3.85;2.15;;;23.20;52.80;;;;;;4978781;28;20135;-75
2022/09/04 10:42:26;;;;;;;4.90;2.40;;;23.40;52.40;;;;;;4952416;28;20052;-80
2022/09/04 10:45:15;;;;;;;4.57;2.38;;;23.50;52.20;;;;;;4968656;28;20260;-79
2022/09/04 10:48:11;;;;;;;4.28;2.20;;;23.60;51.80;;;;;;4951385;28;20140;-80
2022/09/04 10:51:00;;;;;;;5.32;2.38;;;23.80;51.60;;;;;;4952511;28;20082;-80
2022/09/04 10:53:50;;;;;;;3.78;2.30;;;23.80;51.70;;;;;;4951373;28;20130;-78
2022/09/04 10:56:24;;;;;;;4.30;2.40;;;23.90;51.30;;;;;;4951363;28;20159;-77
2022/09/04 10:59:28;;;;;;;3.95;2.30;;;24.00;51.30;;;;;;4956971;28;20271;-74
2022/09/04 11:02:32;;;;;;;5.10;2.35;;;24.00;51.10;;;;;;4953523;28;20059;-76
2022/09/04 11:05:19;;;;;;;4.03;2.08;;;24.10;51.30;;;;;;4952301;28;20067;-78
2022/09/04 11:08:08;;;;;;;4.82;2.30;;;24.20;51.10;;;;;;4951894;28;20059;-79
2022/09/04 11:10:51;;;;;;;4.13;2.30;;;24.30;51.10;;;;;;4953408;28;20044;-78
2022/09/04 11:13:48;;;;;;;4.35;2.15;;;24.40;51.00;;;;;;4936693;28;20302;-79
2022/09/04 11:16:36;;;;;;;3.95;1.90;;;24.60;50.60;;;;;;4952812;28;20528;-76
2022/09/04 11:19:31;;;;;;;6.00;2.10;;;24.60;50.60;;;;;;4952161;28;20473;-77
2022/09/04 11:22:38;;;;;;;4.10;2.72;;;24.70;50.90;;;;;;4951520;28;20058;-83
2022/09/04 11:25:41;;;;;;;5.40;2.10;;;24.90;50.10;;;;;;4955399;28;21038;-82
2022/09/04 11:28:34;;;;;;;3.47;2.13;;;25.00;50.20;;;;;;4950493;28;20295;-77
2022/09/04 11:31:19;;;;;;;3.72;2.20;;;25.00;50.30;;;;;;4950900;28;20130;-86
2022/09/04 11:34:31;;;;;;;4.30;2.47;;;25.00;50.30;;;;;;4951971;28;20051;-76
2022/09/04 11:37:43;;;;;;;4.80;2.20;;;25.20;50.40;;;;;;4938327;28;20506;-86
2022/09/04 11:40:47;;;;;;;4.57;2.23;;;25.30;50.10;;;;;;4902375;28;20105;-76
2022/09/04 11:43:49;;;;;;;6.85;2.58;;;25.50;49.70;;;;;;4949450;28;20259;-74
2022/09/04 11:46:46;;;;;;;3.50;2.20;;;25.60;49.70;;;;;;4951621;28;20066;-86
2022/09/04 11:49:47;;;;;;;3.83;2.17;;;25.70;49.80;;;;;;4952393;28;20154;-84
2022/09/04 11:52:21;;;;;;;3.40;2.05;;;25.80;49.70;;;;;;4911801;28;20967;-82
2022/09/04 11:55:09;;;;;;;3.40;2.20;;;26.00;49.50;;;;;;4968659;28;20127;-75
2022/09/04 11:57:53;;;;;;;6.00;2.60;;;26.00;49.00;;;;;;4954159;28;20355;-84
2022/09/04 12:00:20;;;;;;;4.30;2.60;;;26.10;48.90;;;;;;4952608;28;20051;-83
2022/09/04 12:03:25;;;;;;;6.03;2.50;;;26.20;48.70;;;;;;4952334;28;20529;-76
2022/09/04 12:06:36;;;;;;;4.15;2.45;;;26.30;48.80;;;;;;4903860;28;21047;-73
2022/09/04 12:09:35;;;;;;;3.60;2.07;;;26.40;48.70;;;;;;4950704;28;20488;-73
2022/09/04 12:12:21;;;;;;;4.20;2.65;;;26.50;48.80;;;;;;4951556;28;20291;-74
2022/09/04 12:15:21;;;;;;;3.95;2.05;;;26.60;48.60;;;;;;4952101;28;20058;-74
2022/09/04 12:18:21;;;;;;;4.82;2.00;;;26.70;47.90;;;;;;4899073;28;20058;-74
2022/09/04 12:21:20;;;;;;;4.20;2.10;;;26.70;47.90;;;;;;4950623;28;20144;-73
2022/09/04 12:24:12;;;;;;;4.17;2.10;;;26.80;47.60;;;;;;4949553;28;20143;-74
2022/09/04 12:27:18;;;;;;;4.35;2.40;;;26.90;47.40;;;;;;4950225;28;20260;-74
2022/09/04 12:30:08;;;;;;;5.53;2.35;;;27.00;47.50;;;;;;4940580;28;20063;-74
2022/09/04 12:33:18;;;;;;;3.63;2.20;;;27.10;47.20;;;;;;4950801;28;20395;-74
2022/09/04 12:36:20;;;;;;;3.50;2.20;;;27.10;47.10;;;;;;4950603;28;20071;-73
2022/09/04 12:39:11;;;;;;;3.90;2.30;;;27.20;47.00;;;;;;4921381;28;20054;-73
2022/09/04 12:41:44;;;;;;;3.55;2.30;;;27.20;46.80;;;;;;4911888;28;20264;-74
2022/09/04 12:44:18;;;;;;;4.65;2.30;;;27.30;47.00;;;;;;4948361;28;20098;-73
2022/09/04 12:47:05;;;;;;;6.00;2.60;;;27.40;46.80;;;;;;4950645;28;21036;-73
2022/09/04 12:50:05;;;;;;;4.80;2.40;;;27.50;46.80;;;;;;4948658;28;20054;-73
2022/09/04 12:52:49;;;;;;;4.37;2.40;;;27.50;46.80;;;;;;4936685;28;20397;-73
2022/09/04 12:55:23;;;;;;;3.50;2.10;;;27.60;46.50;;;;;;4948805;28;20800;-73
2022/09/04 12:58:02;;;;;;;3.75;2.22;;;27.70;46.00;;;;;;4950482;28;20525;-73
2022/09/04 13:00:37;;;;;;;3.97;2.60;;;27.80;45.50;;;;;;4949558;28;20115;-73
2022/09/04 13:03:16;;;;;;;3.15;2.10;;;27.80;45.10;;;;;;4951845;28;20123;-73
2022/09/04 13:05:57;;;;;;;3.97;2.40;;;27.90;45.50;;;;;;4953878;28;21134;-75
2022/09/04 13:08:35;;;;;;;4.22;2.20;;;27.90;45.90;;;;;;4953346;28;20264;-75
2022/09/04 13:11:26;;;;;;;4.25;2.45;;;28.00;45.80;;;;;;4953757;28;20187;-75
2022/09/04 13:14:03;;;;;;;4.82;2.45;;;28.10;45.50;;;;;;4970333;28;20139;-75
2022/09/04 13:16:34;;;;;;;5.03;2.50;;;28.10;45.40;;;;;;4970618;28;20059;-75
2022/09/04 13:19:11;;;;;;;4.07;2.50;;;28.30;45.50;;;;;;4955528;28;20122;-74
2022/09/04 13:22:02;;;;;;;3.60;2.40;;;28.30;45.40;;;;;;4953822;28;20272;-74
2022/09/04 13:24:40;;;;;;;3.88;2.38;;;28.50;45.40;;;;;;4953481;28;20130;-74
2022/09/04 13:27:20;;;;;;;4.38;2.42;;;28.50;45.10;;;;;;4948905;28;20059;-74
2022/09/04 13:30:00;;;;;;;3.92;2.50;;;28.60;44.90;;;;;;4951471;28;20055;-74
2022/09/04 13:32:55;;;;;;;4.43;2.70;;;28.70;44.20;;;;;;4966426;28;20489;-74
2022/09/04 13:35:40;;;;;;;4.18;2.70;;;28.70;44.30;;;;;;4945776;28;20259;-74
2022/09/04 13:38:45;;;;;;;4.25;2.67;;;28.80;44.30;;;;;;4966783;28;20107;-75
2022/09/04 13:41:41;;;;;;;5.38;2.70;;;28.90;44.50;;;;;;4951851;28;20071;-72
2022/09/04 13:44:37;;;;;;;3.85;2.60;;;28.90;44.20;;;;;;4952013;28;20076;-74
2022/09/04 13:47:07;;;;;;;4.20;2.70;;;28.90;43.60;;;;;;4954075;28;20074;-75
2022/09/04 13:49:41;;;;;;;4.78;2.65;;;29.00;43.40;;;;;;4950784;28;20300;-74
2022/09/04 13:52:15;;;;;;;5.43;2.60;;;29.00;43.50;;;;;;4952761;28;20048;-74
2022/09/04 13:54:46;;;;;;;5.75;2.53;;;29.10;43.70;;;;;;4953221;28;20135;-75
2022/09/04 13:57:16;;;;;;;5.15;2.75;;;29.10;43.70;;;;;;4951689;28;20103;-75
2022/09/04 13:59:47;;;;;;;3.27;2.47;;;29.20;43.70;;;;;;4953706;28;20052;-73
2022/09/04 14:02:24;;;;;;;4.32;2.45;;;29.20;43.70;;;;;;4950852;28;20268;-73
2022/09/04 14:04:55;;;;;;;3.90;2.50;;;29.30;43.40;;;;;;4969482;28;20058;-74
2022/09/04 14:07:28;;;;;;;5.07;2.80;;;29.40;43.30;;;;;;4953652;28;20569;-74
2022/09/04 14:10:00;;;;;;;5.05;2.72;;;29.40;43.10;;;;;;4969286;28;20048;-73
2022/09/04 14:12:50;;;;;;;4.67;2.67;;;29.40;43.00;;;;;;4952842;28;20214;-73
2022/09/04 14:15:31;;;;;;;4.82;2.90;;;29.40;42.80;;;;;;4968737;28;20391;-72
2022/09/04 14:18:12;;;;;;;4.25;2.50;;;29.40;42.90;;;;;;4954898;28;20087;-73
2022/09/04 14:20:49;;;;;;;3.70;2.80;;;29.40;43.20;;;;;;4969346;28;20075;-72
2022/09/04 14:23:24;;;;;;;4.22;2.90;;;29.40;42.70;;;;;;4967739;28;20876;-72